createdAt,value
2019-04-22T08:14:24.170Z,9.87
2019-04-22T08:24:35.590Z,9.37
2019-04-22T08:29:46.928Z,9.33
2019-04-22T08:34:42.178Z,9.25
2019-04-22T08:40:15.460Z,9.10
2019-04-22T08:56:35.181Z,9.33
2019-04-22T09:01:35.488Z,9.43
2019-04-22T09:07:01.962Z,11.37
2019-04-22T09:11:57.737Z,11.10
2019-04-22T09:16:56.389Z,11.20
2019-04-22T09:22:08.244Z,14.43
2019-04-22T09:27:23.373Z,6.87
2019-04-22T09:32:20.245Z,6.73
2019-04-22T09:37:34.115Z,8.07
2019-04-22T09:42:31.829Z,11.13
2019-04-22T09:52:51.453Z,12.18
2019-04-22T09:57:55.685Z,7.13
2019-04-22T10:08:16.591Z,8.13
2019-04-22T10:13:23.682Z,8.50
2019-04-22T10:18:25.951Z,10.43
2019-04-22T10:23:31.811Z,8.60
2019-04-22T10:28:44.520Z,9.47
2019-04-22T10:33:36.303Z,9.10
2019-04-22T10:38:28.257Z,8.53
2019-04-22T10:43:34.967Z,8.37
2019-04-22T10:48:42.101Z,8.53
2019-04-22T10:53:47.477Z,8.20
2019-04-22T10:58:53.179Z,8.47
2019-04-22T11:03:59.610Z,8.50
2019-04-22T11:09:08.694Z,7.47
2019-04-22T11:14:14.904Z,9.63
2019-04-22T11:19:21.401Z,7.90
2019-04-22T11:24:26.841Z,7.97
2019-04-22T11:29:32.194Z,7.73
2019-04-22T11:34:37.780Z,8.70
2019-04-22T11:39:44.777Z,8.53
2019-04-22T11:44:50.979Z,8.90
2019-04-22T11:49:57.680Z,8.13
2019-04-22T11:55:10.884Z,8.30
2019-04-22T12:00:20.959Z,7.17
2019-04-22T12:05:28.053Z,7.57
2019-04-22T12:10:42.450Z,7.22
2019-04-22T12:15:40.954Z,7.40
2019-04-22T12:20:47.426Z,7.70
2019-04-22T12:26:00.913Z,8.90
2019-04-22T12:31:01.655Z,8.33
2019-04-22T12:36:08.932Z,8.70
2019-04-22T12:41:15.920Z,8.93
2019-04-22T12:46:21.312Z,8.63
2019-04-22T12:51:27.251Z,8.30
2019-04-22T12:56:33.425Z,9.53
2019-04-22T13:01:39.166Z,9.07
2019-04-22T13:06:46.048Z,9.47
2019-04-22T13:11:52.964Z,8.07
2019-04-22T13:16:59.697Z,7.73
2019-04-22T13:22:07.054Z,6.90
2019-04-22T13:27:12.961Z,6.63
2019-04-22T13:32:18.709Z,6.43
2019-04-22T13:37:25.296Z,6.33
2019-04-22T13:42:31.514Z,6.40
2019-04-22T13:47:56.223Z,6.20
2019-04-22T13:58:02.569Z,7.23
2019-04-22T14:03:16.431Z,6.57
2019-04-22T14:08:23.000Z,6.12
2019-04-22T14:13:30.057Z,6.30
2019-04-22T14:18:37.050Z,6.60
2019-04-22T14:23:42.570Z,6.07
2019-04-22T14:28:48.088Z,5.47
2019-04-22T14:33:57.373Z,6.57
2019-04-22T14:39:02.036Z,5.63
2019-04-22T14:49:44.847Z,5.58
2019-04-22T14:54:37.745Z,4.93
2019-04-22T14:59:32.611Z,5.60
2019-04-22T15:04:39.277Z,5.13
2019-04-22T15:09:46.022Z,6.80
2019-04-22T15:14:53.113Z,5.63
2019-04-22T15:20:16.328Z,4.97
2019-04-22T15:25:22.864Z,5.40
2019-04-22T15:30:29.654Z,5.10
2019-04-22T15:35:37.360Z,5.53
2019-04-22T15:40:43.099Z,5.40
2019-04-22T15:45:48.730Z,5.33
2019-04-22T15:50:54.982Z,5.43
2019-04-22T15:56:03.083Z,5.63
2019-04-22T16:01:16.226Z,5.70
2019-04-22T16:06:15.791Z,6.00
2019-04-22T16:11:22.270Z,6.20
2019-04-22T16:16:28.404Z,6.40
2019-04-22T16:21:45.180Z,6.07
2019-04-22T16:26:44.398Z,6.17
2019-04-22T16:31:51.363Z,6.47
2019-04-22T16:36:57.120Z,5.67
2019-04-22T16:42:02.708Z,5.60
2019-04-22T16:47:09.933Z,10.70
2019-04-22T16:52:16.270Z,5.42
2019-04-22T16:57:21.974Z,6.42
2019-04-22T17:02:43.219Z,5.03
2019-04-22T17:07:48.315Z,5.30
2019-04-22T17:13:01.497Z,5.70
2019-04-22T17:18:01.287Z,3.57
2019-04-22T17:23:07.461Z,3.80
2019-04-22T17:28:13.307Z,3.80
2019-04-22T17:33:19.111Z,3.50
2019-04-22T17:38:36.183Z,3.40
2019-04-22T17:49:10.941Z,6.93
2019-04-22T17:54:21.405Z,6.15
2019-04-22T17:59:29.499Z,7.23
2019-04-22T18:04:13.923Z,10.13
2019-04-22T18:10:10.747Z,8.20
2019-04-22T18:14:54.804Z,7.77
2019-04-22T18:19:52.034Z,10.10
2019-04-22T18:24:58.335Z,7.80
2019-04-22T18:30:04.007Z,8.43
2019-04-22T18:35:14.279Z,6.40
2019-04-22T18:40:25.993Z,6.37
2019-04-22T18:45:40.475Z,7.43
2019-04-22T18:51:07.753Z,7.85
2019-04-22T18:56:13.926Z,9.97
2019-04-22T19:00:57.768Z,8.63
2019-04-22T19:06:36.842Z,6.90
2019-04-22T19:11:34.171Z,7.08
2019-04-22T19:16:39.863Z,7.43
2019-04-22T19:21:47.697Z,8.53
2019-04-22T19:32:05.174Z,19.43
2019-04-22T19:37:10.903Z,17.27
2019-04-22T19:42:27.051Z,25.33
2019-04-22T19:52:35.793Z,14.80
2019-04-22T19:57:33.977Z,18.10
2019-04-22T20:02:51.420Z,9.70
2019-04-22T20:07:49.679Z,8.97
2019-04-22T20:13:07.623Z,9.67
2019-04-22T20:18:27.013Z,9.70
2019-04-22T20:23:15.910Z,10.20
2019-04-22T20:28:31.818Z,9.60
2019-04-22T20:33:36.979Z,9.67
2019-04-22T20:38:39.900Z,10.68
2019-04-22T20:43:54.641Z,9.53
2019-04-22T20:49:05.093Z,30.67
2019-04-22T20:54:09.001Z,56.27
2019-04-22T20:59:08.685Z,32.73
2019-04-22T21:04:01.532Z,16.23
2019-04-22T21:09:25.411Z,11.77
2019-04-22T21:14:32.285Z,21.90
2019-04-22T21:19:53.205Z,11.40
2019-04-22T21:24:49.226Z,15.20
2019-04-22T21:29:49.645Z,11.90
2019-04-22T21:35:05.779Z,11.63
2019-04-22T21:40:16.419Z,11.50
2019-04-22T21:45:16.668Z,11.80
2019-04-22T21:50:41.561Z,11.90
2019-04-22T21:55:45.038Z,13.13
2019-04-22T22:01:02.471Z,25.43
2019-04-22T22:05:49.134Z,17.87
2019-04-22T22:11:02.635Z,23.70
2019-04-22T22:16:06.673Z,35.40
2019-04-22T22:21:38.100Z,20.73
2019-04-22T22:26:18.625Z,20.40
2019-04-22T22:31:34.633Z,40.10
2019-04-22T22:36:35.148Z,35.48
2019-04-22T22:41:29.872Z,24.90
2019-04-22T22:46:52.060Z,35.60
2019-04-22T22:52:32.966Z,15.27
2019-04-22T22:57:17.463Z,13.87
2019-04-22T23:02:20.417Z,13.03
2019-04-22T23:07:28.861Z,13.40
2019-04-22T23:12:40.869Z,13.80
2019-04-22T23:17:25.698Z,13.53
2019-04-22T23:22:36.092Z,14.17
2019-04-22T23:28:01.526Z,15.07
2019-04-22T23:33:09.870Z,13.63
2019-04-22T23:38:23.154Z,14.33
2019-04-22T23:43:32.657Z,24.23
2019-04-22T23:48:29.445Z,19.02
2019-04-22T23:58:57.886Z,29.90
